Time;durP1;ratioP1;P1;durP2;ratioP2;P2;SDS_P1;SDS_P2;PMS_P1;PMS_P2;Temp;Humidity;BMP_temperature;BMP_pressure;BME280_temperature;BME280_humidity;BME280_pressure;Samples;Min_cycle;Max_cycle;Signal;HPM_P1;HPM_P2
2023/10/25 00:00:08;;;;;;;5.63;3.70;;;;;;;11.49;65.12;99686.56;672795;29;1247;-95
2023/10/25 00:00:29;;;;;;;5.10;3.70;;;;;;;11.48;64.88;99671.75;672876;29;1384;-95
2023/10/25 00:00:50;;;;;;;4.78;3.50;;;;;;;11.49;65.02;99677.88;677946;29;1235;-95
2023/10/25 00:01:11;;;;;;;5.20;3.80;;;;;;;11.52;65.46;99684.00;672781;29;1252;-95
2023/10/25 00:01:32;;;;;;;5.13;3.70;;;;;;;11.51;65.27;99682.22;677755;29;1187;-96
2023/10/25 00:01:52;;;;;;;4.40;3.67;;;;;;;11.44;65.20;99669.97;675428;29;1202;-96
2023/10/25 00:02:13;;;;;;;5.17;3.80;;;;;;;11.51;65.30;99687.44;675081;29;1168;-95
2023/10/25 00:02:34;;;;;;;4.47;3.63;;;;;;;11.49;65.12;99678.72;677615;29;1171;-94
2023/10/25 00:02:55;;;;;;;4.50;3.70;;;;;;;11.45;65.06;99666.53;667527;29;1252;-95
2023/10/25 00:03:16;;;;;;;3.80;3.40;;;;;;;11.47;64.91;99674.34;672792;29;1179;-94
2023/10/25 00:03:37;;;;;;;4.00;3.50;;;;;;;11.54;64.94;99688.34;677892;29;1226;-95
2023/10/25 00:03:58;;;;;;;4.40;3.60;;;;;;;11.58;64.98;99688.38;672778;29;1223;-95
2023/10/25 00:04:19;;;;;;;5.20;3.80;;;;;;;11.52;64.97;99686.63;672560;29;1385;-95
2023/10/25 00:04:39;;;;;;;8.20;4.00;;;;;;;11.55;64.91;99683.13;673031;29;1164;-95
2023/10/25 00:05:00;;;;;;;8.15;3.90;;;;;;;11.55;64.98;99672.66;672575;29;1214;-96
2023/10/25 00:05:21;;;;;;;7.38;4.00;;;;;;;11.52;64.95;99672.66;672522;29;1340;-95
2023/10/25 00:05:42;;;;;;;6.30;4.00;;;;;;;11.54;64.95;99677.91;672804;29;1228;-95
2023/10/25 00:06:02;;;;;;;7.70;4.13;;;;;;;11.55;64.95;99674.41;670362;29;1269;-95
2023/10/25 00:06:23;;;;;;;7.15;4.25;;;;;;;11.49;64.94;99668.28;670046;29;1092;-94
2023/10/25 00:06:44;;;;;;;6.55;4.22;;;;;;;11.54;65.20;99678.75;672781;29;1197;-96
2023/10/25 00:07:07;;;;;;;5.35;4.03;;;;;;;11.54;65.24;99673.53;675296;29;1208;-95
2023/10/25 00:07:27;;;;;;;5.53;3.80;;;;;;;11.54;65.06;99670.06;672629;29;1247;-96
2023/10/25 00:07:48;;;;;;;6.30;3.78;;;;;;;11.46;65.11;99660.44;672931;29;1278;-96
2023/10/25 00:08:09;;;;;;;6.80;3.80;;;;;;;11.58;65.09;99682.25;677914;29;1192;-95
2023/10/25 00:08:29;;;;;;;9.55;4.05;;;;;;;11.52;65.14;99673.53;675406;29;1286;-95
2023/10/25 00:08:50;;;;;;;9.80;4.00;;;;;;;11.55;65.22;99666.59;677905;29;1246;-95
2023/10/25 00:09:11;;;;;;;9.00;4.03;;;;;;;11.51;65.28;99671.78;677012;29;1201;-94
2023/10/25 00:09:32;;;;;;;5.80;3.92;;;;;;;11.52;65.13;99663.09;672814;29;1230;-95
2023/10/25 00:09:53;;;;;;;5.38;3.97;;;;;;;11.52;65.01;99670.03;670200;29;1175;-96
2023/10/25 00:10:14;;;;;;;5.20;3.72;;;;;;;11.44;65.06;99654.31;680755;29;1209;-95
2023/10/25 00:10:34;;;;;;;5.43;3.83;;;;;;;11.48;65.17;99671.75;677943;29;1345;-95
2023/10/25 00:11:05;;;;;;;6.10;3.90;;;;;;;11.43;65.13;99664.75;675351;29;1304;-95
2023/10/25 00:11:26;;;;;;;6.05;3.90;;;;;;;11.49;64.93;99678.72;675309;29;1337;-96
2023/10/25 00:11:47;;;;;;;5.47;3.53;;;;;;;11.41;64.92;99659.53;680485;29;1227;-95
2023/10/25 00:12:07;;;;;;;4.90;3.60;;;;;;;11.48;64.84;99668.25;680414;29;1240;-95
2023/10/25 00:12:28;;;;;;;5.77;3.57;;;;;;;11.55;65.18;99674.41;672765;29;1250;-95
2023/10/25 00:12:49;;;;;;;6.38;3.80;;;;;;;11.49;65.08;99662.19;680422;29;1353;-95
2023/10/25 00:13:10;;;;;;;6.25;3.67;;;;;;;11.48;65.11;99663.94;685771;28;1348;-95
2023/10/25 00:13:31;;;;;;;5.80;3.67;;;;;;;11.49;65.00;99663.06;672627;29;1915;-95
2023/10/25 00:13:52;;;;;;;6.07;3.47;;;;;;;11.51;64.89;99669.16;672563;29;1252;-96
2023/10/25 00:14:12;;;;;;;6.03;3.58;;;;;;;11.52;64.99;99673.53;672833;29;1204;-95
2023/10/25 00:18:03;;;;;;;5.30;3.88;;;;;;;11.48;64.86;99674.38;683016;29;1313;-96
2023/10/25 00:18:24;;;;;;;4.90;3.90;;;;;;;11.54;65.06;99680.50;678245;29;1228;-95
2023/10/25 00:18:45;;;;;;;5.38;3.90;;;;;;;11.46;64.97;99672.59;675372;29;1310;-95
2023/10/25 00:19:06;;;;;;;5.00;3.72;;;;;;;11.51;64.75;99676.13;677893;29;1113;-95
2023/10/25 00:19:26;;;;;;;5.72;3.90;;;;;;;11.51;64.74;99681.38;672865;29;1202;-95
2023/10/25 00:19:47;;;;;;;5.50;3.95;;;;;;;11.47;64.74;99664.78;675238;29;1243;-96
2023/10/25 00:20:08;;;;;;;4.97;3.60;;;;;;;11.52;64.73;99675.28;675492;29;1146;-95
2023/10/25 00:20:29;;;;;;;4.25;3.25;;;;;;;11.49;65.06;99677.88;672897;29;1187;-95
2023/10/25 00:20:51;;;;;;;4.70;3.20;;;;;;;11.47;64.90;99672.63;674629;29;1208;-96
2023/10/25 00:21:12;;;;;;;4.97;3.40;;;;;;;11.46;64.80;99663.06;675297;29;1489;-96
2023/10/25 00:21:33;;;;;;;6.03;3.47;;;;;;;11.43;64.67;99664.75;672838;29;1207;-94
2023/10/25 00:21:54;;;;;;;6.53;3.60;;;;;;;11.46;64.72;99673.50;675295;29;1233;-96
2023/10/25 00:22:15;;;;;;;7.90;3.50;;;;;;;11.47;64.83;99675.25;672818;29;1155;-95
2023/10/25 00:22:36;;;;;;;6.00;3.65;;;;;;;11.42;64.84;99665.63;672850;29;1195;-96
2023/10/25 00:22:56;;;;;;;5.10;3.40;;;;;;;11.46;64.77;99672.59;675285;29;1210;-95
2023/10/25 00:23:21;;;;;;;4.50;3.58;;;;;;;11.45;64.78;99666.53;672562;29;1293;-96
2023/10/25 00:23:42;;;;;;;5.40;3.60;;;;;;;11.44;65.01;99669.97;675368;29;1413;-93
2023/10/25 00:24:03;;;;;;;5.20;3.50;;;;;;;11.37;64.86;99657.78;672592;29;1284;-94
2023/10/25 00:24:24;;;;;;;4.60;3.33;;;;;;;11.44;64.87;99669.97;669749;29;1344;-95
2023/10/25 00:24:44;;;;;;;5.13;3.60;;;;;;;11.44;64.93;99663.91;670330;29;1264;-95
2023/10/25 00:25:06;;;;;;;5.20;3.67;;;;;;;11.52;64.77;99689.22;674936;29;1226;-96
2023/10/25 00:25:26;;;;;;;4.95;3.38;;;;;;;11.44;64.97;99664.75;675527;29;1369;-95
2023/10/25 00:25:51;;;;;;;5.40;3.03;;;;;;;11.48;64.92;99666.53;672720;29;1270;-96
2023/10/25 00:26:11;;;;;;;5.63;3.13;;;;;;;11.52;64.75;99677.88;670245;29;1429;-96
2023/10/25 00:26:32;;;;;;;6.28;3.40;;;;;;;11.42;65.15;99663.88;675324;29;1268;-95
2023/10/25 00:26:54;;;;;;;5.00;3.42;;;;;;;11.43;64.76;99668.25;675282;29;1370;-95
2023/10/25 00:27:15;;;;;;;5.57;3.47;;;;;;;11.43;64.78;99665.63;672325;29;1306;-95
2023/10/25 00:27:37;;;;;;;6.50;3.47;;;;;;;11.47;64.75;99676.97;673184;29;1222;-95
2023/10/25 00:27:58;;;;;;;5.63;3.30;;;;;;;11.44;64.53;99669.97;670093;29;1218;-95
2023/10/25 00:28:19;;;;;;;5.70;3.50;;;;;;;11.37;64.77;99652.53;675224;29;1194;-95
2023/10/25 00:28:39;;;;;;;4.60;3.40;;;;;;;11.42;65.03;99676.94;675366;29;1207;-96
2023/10/25 00:29:00;;;;;;;5.53;3.58;;;;;;;11.36;64.57;99661.22;672743;29;1292;-95
2023/10/25 00:29:21;;;;;;;5.50;3.50;;;;;;;11.41;64.54;99680.41;672619;29;1244;-95
2023/10/25 00:29:41;;;;;;;5.77;3.43;;;;;;;11.37;64.82;99676.06;672916;29;1167;-95
2023/10/25 00:30:02;;;;;;;6.85;3.10;;;;;;;11.35;64.74;99681.25;675167;29;1158;-95
2023/10/25 00:30:23;;;;;;;8.27;3.03;;;;;;;11.33;64.64;99675.16;680579;29;1300;-95
2023/10/25 00:30:44;;;;;;;7.70;3.20;;;;;;;11.34;64.72;99668.19;677930;29;1217;-95
2023/10/25 00:31:04;;;;;;;6.70;3.42;;;;;;;11.30;64.58;99669.03;670069;29;1278;-96
2023/10/25 00:31:25;;;;;;;5.00;3.20;;;;;;;11.29;64.94;99672.50;677908;29;1262;-95
2023/10/25 00:31:46;;;;;;;4.65;3.20;;;;;;;11.32;64.82;99675.13;672685;29;1247;-95
2023/10/25 00:32:14;;;;;;;5.00;3.20;;;;;;;11.33;64.60;99671.66;677805;29;1179;-95
2023/10/25 00:32:35;;;;;;;4.35;3.40;;;;;;;11.28;64.94;99670.75;680500;29;1336;-95
2023/10/25 00:32:55;;;;;;;6.20;3.50;;;;;;;11.28;64.80;99673.34;667607;29;1153;-95
2023/10/25 00:33:16;;;;;;;5.85;3.15;;;;;;;11.26;64.82;99669.88;672667;29;1207;-95
2023/10/25 00:33:37;;;;;;;6.35;3.10;;;;;;;11.24;64.97;99664.63;677480;29;1964;-95
2023/10/25 00:33:58;;;;;;;4.43;3.10;;;;;;;11.28;64.88;99670.75;670203;29;1264;-94
2023/10/25 00:34:19;;;;;;;4.47;3.20;;;;;;;11.26;65.16;99656.81;672729;29;1246;-95
2023/10/25 00:34:40;;;;;;;3.85;2.92;;;;;;;11.29;65.27;99675.13;672712;29;1203;-96
2023/10/25 00:35:01;;;;;;;3.92;2.97;;;;;;;11.33;64.91;99679.50;670029;29;1391;-96
2023/10/25 00:35:22;;;;;;;4.20;3.10;;;;;;;11.29;65.05;99665.53;672451;29;1254;-95
2023/10/25 00:35:42;;;;;;;5.38;3.55;;;;;;;11.30;64.96;99671.66;675276;29;1103;-96
2023/10/25 00:36:04;;;;;;;6.10;3.50;;;;;;;11.24;65.05;99657.66;670014;29;1269;-96
2023/10/25 00:36:24;;;;;;;5.80;3.40;;;;;;;11.28;65.04;99671.63;675373;29;1344;-95
2023/10/25 00:36:46;;;;;;;4.43;3.10;;;;;;;11.31;64.94;99678.63;677840;29;1318;-96
2023/10/25 00:37:06;;;;;;;4.65;3.25;;;;;;;11.34;65.02;99676.00;672307;29;1180;-95
2023/10/25 00:37:27;;;;;;;4.47;3.30;;;;;;;11.30;65.05;99676.88;675145;29;1317;-94
2023/10/25 00:37:48;;;;;;;4.03;3.10;;;;;;;11.31;64.93;99682.09;677398;29;1415;-95
2023/10/25 00:38:09;;;;;;;3.90;2.90;;;;;;;11.29;65.18;99675.13;670046;29;1156;-95
2023/10/25 00:38:30;;;;;;;3.72;2.80;;;;;;;11.31;65.05;99682.09;672651;29;1303;-96
2023/10/25 00:38:52;;;;;;;3.60;2.80;;;;;;;11.35;65.13;99678.66;677732;29;1304;-95
2023/10/25 00:39:12;;;;;;;4.13;2.90;;;;;;;11.21;64.87;99660.28;672468;29;1196;-95
2023/10/25 00:39:33;;;;;;;5.60;3.03;;;;;;;11.26;64.88;99680.31;674869;29;1390;-95
2023/10/25 00:39:56;;;;;;;6.57;3.47;;;;;;;11.29;65.07;99678.59;675177;29;1280;-96
2023/10/25 00:40:17;;;;;;;6.50;3.45;;;;;;;11.28;64.98;99673.34;675172;29;1214;-95
2023/10/25 00:40:38;;;;;;;5.22;3.50;;;;;;;11.29;65.09;99677.75;672693;29;1334;-93
2023/10/25 00:40:59;;;;;;;4.38;3.13;;;;;;;11.30;64.92;99676.88;667418;29;1257;-95
2023/10/25 00:41:19;;;;;;;4.25;3.10;;;;;;;11.27;64.85;99677.72;675157;29;1210;-95
2023/10/25 00:41:40;;;;;;;6.27;3.20;;;;;;;11.27;64.74;99674.22;678176;29;1265;-96
2023/10/25 00:42:01;;;;;;;8.25;3.60;;;;;;;11.19;64.73;99659.38;672776;29;1287;-96
2023/10/25 00:42:23;;;;;;;8.05;3.50;;;;;;;11.29;64.83;99677.75;672390;29;1196;-96
2023/10/25 00:42:44;;;;;;;5.78;3.20;;;;;;;11.30;65.08;99669.03;673322;29;1202;-95
2023/10/25 00:43:16;;;;;;;5.30;3.15;;;;;;;11.34;64.80;99679.50;672682;29;1284;-95
2023/10/25 00:43:37;;;;;;;7.30;3.70;;;;;;;11.23;64.89;99668.97;672880;29;1173;-96
2023/10/25 00:43:57;;;;;;;7.63;4.05;;;;;;;11.29;64.83;99675.13;680559;29;1175;-96
2023/10/25 00:44:18;;;;;;;6.45;4.00;;;;;;;11.30;64.89;99687.31;674228;29;1329;-95
2023/10/25 00:44:39;;;;;;;7.88;3.97;;;;;;;11.22;64.88;99667.25;675335;29;1185;-95
2023/10/25 00:45:00;;;;;;;6.47;3.65;;;;;;;11.24;65.06;99680.28;682621;29;1431;-95
2023/10/25 00:45:21;;;;;;;6.68;3.60;;;;;;;11.20;64.83;99670.69;670003;29;1405;-95
2023/10/25 00:46:00;;;;;;;5.43;3.50;;;;;;;11.29;64.84;99688.19;672636;29;1209;-95
2023/10/25 00:46:28;;;;;;;4.20;3.20;;;;;;;11.23;64.78;99681.16;680290;29;1231;-95
2023/10/25 00:46:49;;;;;;;9.25;3.30;;;;;;;11.18;64.62;99675.03;677820;29;1341;-95
2023/10/25 00:47:10;;;;;;;9.82;3.45;;;;;;;11.20;64.82;99684.59;678095;29;1258;-95
2023/10/25 00:47:31;;;;;;;10.48;3.45;;;;;;;11.24;64.86;99690.72;677460;29;1269;-95
2023/10/25 00:47:52;;;;;;;5.15;3.10;;;;;;;11.14;65.07;99675.88;672608;29;1243;-95
2023/10/25 00:48:13;;;;;;;4.17;3.00;;;;;;;11.12;64.64;99672.38;678008;29;1167;-94
2023/10/25 00:48:35;;;;;;;5.07;3.20;;;;;;;11.16;64.78;99687.19;672629;29;1241;-95
2023/10/25 00:48:59;;;;;;;5.18;3.10;;;;;;;11.19;65.11;99682.88;672650;29;1285;-95
2023/10/25 00:49:20;;;;;;;5.47;3.00;;;;;;;11.16;65.07;99685.47;677889;29;1226;-95
2023/10/25 00:49:40;;;;;;;8.23;2.70;;;;;;;11.15;64.77;99677.59;675524;29;1300;-95
2023/10/25 00:50:02;;;;;;;8.68;2.80;;;;;;;11.15;64.94;99678.50;675332;29;1179;-95
2023/10/25 00:50:22;;;;;;;9.02;3.00;;;;;;;11.19;65.09;99688.09;680490;29;1232;-96
2023/10/25 00:50:43;;;;;;;3.75;2.95;;;;;;;11.19;65.03;99688.09;672605;29;1314;-95
2023/10/25 00:51:04;;;;;;;5.57;3.13;;;;;;;11.18;64.92;99686.34;675232;29;1304;-96
2023/10/25 00:51:27;;;;;;;5.35;3.08;;;;;;;11.10;64.77;99672.34;677873;29;1561;-96
2023/10/25 00:51:47;;;;;;;7.78;3.25;;;;;;;11.15;64.83;99680.22;680261;29;1186;-95
2023/10/25 00:52:09;;;;;;;6.70;3.10;;;;;;;11.18;64.77;99691.56;683246;29;1381;-95
2023/10/25 00:52:30;;;;;;;6.25;3.10;;;;;;;11.15;64.68;99688.94;680492;29;1274;-95
2023/10/25 00:52:51;;;;;;;3.67;3.17;;;;;;;11.09;64.81;99674.09;675224;29;1128;-96
2023/10/25 00:53:11;;;;;;;4.90;3.10;;;;;;;11.13;65.10;99688.06;672747;29;1275;-95
2023/10/25 00:53:33;;;;;;;5.35;2.97;;;;;;;11.13;65.00;99680.22;672604;29;1994;-96
2023/10/25 00:53:55;;;;;;;4.85;2.80;;;;;;;11.10;65.17;99685.41;677903;29;1222;-95
2023/10/25 00:54:16;;;;;;;3.97;2.83;;;;;;;11.09;65.07;99678.44;675320;29;1268;-95
2023/10/25 00:54:37;;;;;;;3.63;2.90;;;;;;;11.10;64.95;99677.56;674990;29;1252;-95
2023/10/25 00:54:59;;;;;;;3.97;2.90;;;;;;;11.10;64.85;99682.78;672711;29;1259;-95
2023/10/25 00:55:19;;;;;;;4.78;3.20;;;;;;;11.07;64.95;99688.00;676266;29;1389;-95
2023/10/25 00:55:40;;;;;;;7.70;3.67;;;;;;;11.00;65.06;99667.94;667713;29;1227;-95
2023/10/25 00:56:02;;;;;;;7.63;3.53;;;;;;;11.05;65.23;99668.84;672254;29;1230;-96
2023/10/25 00:56:25;;;;;;;6.32;3.50;;;;;;;11.06;65.35;99670.59;672723;29;1231;-95
2023/10/25 00:56:48;;;;;;;3.75;3.15;;;;;;;11.13;65.14;99680.22;675165;29;1179;-95
2023/10/25 00:57:09;;;;;;;3.80;3.30;;;;;;;11.20;65.09;99692.44;675310;29;1222;-95
2023/10/25 00:57:32;;;;;;;3.90;3.30;;;;;;;11.14;64.95;99678.47;672726;29;1377;-96
2023/10/25 00:57:53;;;;;;;3.90;3.15;;;;;;;11.11;65.22;99671.47;670258;29;1325;-95
2023/10/25 00:58:14;;;;;;;3.75;3.05;;;;;;;11.07;64.81;99665.38;672481;29;1330;-95
2023/10/25 00:58:34;;;;;;;4.30;3.22;;;;;;;11.11;64.96;99666.25;675104;29;1194;-95
2023/10/25 00:58:59;;;;;;;4.68;3.20;;;;;;;11.14;64.99;99671.53;672539;29;1226;-95
2023/10/25 00:59:21;;;;;;;5.13;3.50;;;;;;;11.14;65.03;99674.13;675077;29;1284;-96
2023/10/25 00:59:42;;;;;;;4.75;3.20;;;;;;;11.07;65.25;99661.91;672733;29;1229;-95
2023/10/25 01:00:03;;;;;;;5.32;3.60;;;;;;;11.16;65.24;99680.25;670077;29;1233;-96
2023/10/25 01:00:25;;;;;;;6.00;3.28;;;;;;;11.06;65.15;99662.75;675170;29;1326;-95
2023/10/25 01:00:46;;;;;;;6.45;3.25;;;;;;;11.12;64.87;99673.22;675167;29;1230;-95
2023/10/25 01:01:08;;;;;;;4.78;2.85;;;;;;;11.14;65.05;99679.38;675143;29;1357;-95
2023/10/25 01:01:29;;;;;;;3.10;2.50;;;;;;;11.13;64.98;99680.22;680361;29;1353;-95
2023/10/25 01:01:50;;;;;;;3.50;2.70;;;;;;;11.08;65.13;99669.72;677788;29;1416;-95
2023/10/25 01:02:12;;;;;;;3.85;2.90;;;;;;;11.12;64.94;99673.22;675295;29;1112;-96
2023/10/25 01:02:33;;;;;;;4.15;3.10;;;;;;;11.05;64.93;99671.47;677783;29;1348;-95
2023/10/25 01:02:54;;;;;;;4.50;3.03;;;;;;;11.10;64.96;99667.13;672459;29;1282;-96
2023/10/25 01:03:15;;;;;;;4.40;3.00;;;;;;;11.09;65.07;99681.06;675347;29;1306;-96
2023/10/25 01:03:36;;;;;;;4.72;3.10;;;;;;;11.08;64.99;99677.56;670034;29;1467;-95
2023/10/25 01:03:57;;;;;;;4.33;3.00;;;;;;;11.09;65.01;99678.44;675331;29;1260;-94
2023/10/25 01:04:18;;;;;;;4.53;3.20;;;;;;;11.01;65.12;99667.06;675327;29;1281;-96
2023/10/25 01:04:39;;;;;;;4.50;3.10;;;;;;;11.00;64.92;99662.72;667471;29;1285;-95
2023/10/25 01:05:00;;;;;;;4.50;3.17;;;;;;;11.05;64.76;99679.28;672580;29;1218;-96
2023/10/25 01:05:21;;;;;;;4.13;3.10;;;;;;;11.01;64.80;99669.66;672491;29;1148;-95
2023/10/25 01:05:43;;;;;;;3.90;3.00;;;;;;;11.02;64.72;99674.91;670014;29;1222;-95
2023/10/25 01:06:04;;;;;;;4.90;2.63;;;;;;;11.03;64.95;99676.66;675021;29;1345;-95
2023/10/25 01:06:26;;;;;;;6.10;2.80;;;;;;;11.04;64.83;99677.50;675203;29;1326;-94
2023/10/25 01:06:47;;;;;;;7.22;3.42;;;;;;;10.93;64.98;99661.75;677759;29;1156;-95
2023/10/25 01:07:08;;;;;;;7.10;3.60;;;;;;;10.99;64.72;99671.41;670056;29;1317;-95
2023/10/25 01:07:29;;;;;;;6.72;3.58;;;;;;;10.92;65.03;99665.22;672457;29;1188;-95
2023/10/25 01:07:50;;;;;;;5.75;3.05;;;;;;;10.97;64.60;99668.78;675109;29;1280;-95
2023/10/25 01:08:10;;;;;;;5.05;3.15;;;;;;;10.96;64.63;99672.25;672491;29;1252;-95
2023/10/25 01:08:32;;;;;;;3.80;3.00;;;;;;;10.97;64.98;99671.38;677698;29;1285;-95
2023/10/25 01:08:53;;;;;;;3.30;2.80;;;;;;;10.99;64.95;99681.84;677967;29;1229;-95
2023/10/25 01:09:14;;;;;;;3.00;2.60;;;;;;;10.96;64.89;99673.09;675267;29;1269;-95
2023/10/25 01:09:35;;;;;;;3.60;2.90;;;;;;;10.94;65.01;99664.38;680251;29;1274;-94
2023/10/25 01:09:56;;;;;;;4.57;3.38;;;;;;;10.96;65.42;99678.31;675086;29;1284;-96
2023/10/25 01:10:17;;;;;;;5.60;3.50;;;;;;;10.92;65.32;99657.41;672629;29;1140;-96
2023/10/25 01:10:37;;;;;;;5.05;3.20;;;;;;;11.03;65.43;99674.03;672606;29;1338;-95
2023/10/25 01:10:58;;;;;;;4.80;3.20;;;;;;;10.97;65.11;99651.38;675141;29;1270;-95
2023/10/25 01:11:19;;;;;;;6.60;3.33;;;;;;;11.06;65.03;99667.97;675004;29;1469;-96
2023/10/25 01:11:41;;;;;;;6.50;3.30;;;;;;;11.04;65.26;99667.06;672636;29;1358;-94
2023/10/25 01:12:02;;;;;;;5.55;3.13;;;;;;;11.08;65.00;99671.47;680362;29;1356;-95
2023/10/25 01:12:23;;;;;;;3.80;3.30;;;;;;;11.08;64.86;99671.47;680326;29;1274;-95
2023/10/25 01:12:43;;;;;;;3.97;3.55;;;;;;;11.08;64.98;99672.31;677734;29;1214;-95
2023/10/25 01:13:04;;;;;;;4.53;3.70;;;;;;;11.06;65.08;99673.19;675106;29;1414;-95
2023/10/25 01:13:25;;;;;;;4.60;3.67;;;;;;;11.08;64.79;99671.47;672567;29;1966;-95
2023/10/25 01:13:46;;;;;;;4.38;3.65;;;;;;;11.10;64.90;99677.56;672719;29;1308;-95
2023/10/25 01:14:07;;;;;;;3.90;3.50;;;;;;;11.07;64.97;99669.72;677435;29;1196;-96
2023/10/25 01:14:30;;;;;;;5.13;3.50;;;;;;;11.09;64.76;99676.72;675147;29;1198;-96
2023/10/25 01:14:50;;;;;;;6.15;3.42;;;;;;;11.05;64.93;99671.47;669945;29;1220;-96
2023/10/25 01:15:12;;;;;;;5.97;3.47;;;;;;;11.07;64.88;99664.50;672610;29;1171;-95
2023/10/25 01:15:33;;;;;;;5.72;3.92;;;;;;;11.05;65.07;99667.09;672628;29;1295;-95
2023/10/25 01:15:54;;;;;;;4.70;3.65;;;;;;;11.03;64.85;99663.59;675210;29;1310;-95
2023/10/25 01:16:15;;;;;;;4.70;3.63;;;;;;;11.07;65.05;99672.34;675265;29;1262;-95
2023/10/25 01:16:35;;;;;;;4.70;3.40;;;;;;;11.05;65.07;99671.47;672457;29;1315;-95
2023/10/25 01:16:56;;;;;;;4.30;3.38;;;;;;;11.06;64.96;99668.84;667534;29;1299;-95
2023/10/25 01:17:17;;;;;;;4.47;3.38;;;;;;;11.00;65.10;99654.88;670106;29;1264;-95
2023/10/25 01:17:39;;;;;;;4.22;3.30;;;;;;;11.08;65.19;99666.25;674749;29;1210;-95
2023/10/25 01:18:00;;;;;;;7.18;3.78;;;;;;;11.05;65.03;99658.41;675124;29;1318;-95
2023/10/25 01:18:21;;;;;;;7.45;3.90;;;;;;;11.02;64.93;99661.84;672670;29;1267;-96
2023/10/25 01:18:42;;;;;;;6.90;3.85;;;;;;;11.03;64.84;99662.72;677725;29;1403;-95
2023/10/25 01:19:03;;;;;;;5.28;3.60;;;;;;;11.08;64.90;99663.63;672510;29;1239;-96
2023/10/25 01:19:24;;;;;;;6.33;3.70;;;;;;;11.04;64.87;99665.34;675089;29;1254;-94
2023/10/25 01:19:45;;;;;;;5.68;3.65;;;;;;;10.98;64.87;99654.84;677853;29;1364;-94
2023/10/25 01:20:06;;;;;;;5.20;3.60;;;;;;;11.03;64.90;99674.03;677865;29;1179;-95
2023/10/25 01:20:27;;;;;;;3.80;3.40;;;;;;;10.96;64.86;99657.44;667665;29;1214;-95
2023/10/25 01:20:47;;;;;;;3.83;3.25;;;;;;;10.99;65.00;99660.97;672533;29;1286;-95
2023/10/25 01:21:09;;;;;;;3.88;3.40;;;;;;;10.96;64.61;99662.66;675192;29;1132;-95
2023/10/25 01:21:30;;;;;;;4.38;3.35;;;;;;;10.96;64.99;99657.44;675084;29;1234;-95
2023/10/25 01:21:52;;;;;;;4.90;3.50;;;;;;;10.95;64.55;99666.13;672437;29;1373;-95
2023/10/25 01:22:12;;;;;;;4.43;3.15;;;;;;;10.91;64.85;99659.16;670176;29;1338;-95
2023/10/25 01:22:33;;;;;;;4.72;3.50;;;;;;;10.91;64.82;99656.53;669953;29;1411;-95
2023/10/25 01:22:54;;;;;;;5.30;3.50;;;;;;;10.95;64.69;99671.34;675180;29;1274;-95
2023/10/25 01:23:14;;;;;;;6.03;3.70;;;;;;;10.90;64.88;99662.63;670065;29;1144;-95
2023/10/25 01:23:36;;;;;;;6.50;3.50;;;;;;;10.90;64.63;99667.84;674841;29;1367;-95
2023/10/25 01:23:58;;;;;;;6.03;3.40;;;;;;;10.87;64.75;99667.81;677595;29;1251;-95
2023/10/25 01:24:21;;;;;;;5.63;3.33;;;;;;;10.82;64.52;99664.28;677289;29;1271;-96
2023/10/25 01:24:43;;;;;;;5.40;3.42;;;;;;;10.85;64.81;99664.31;677919;29;1183;-95
2023/10/25 01:25:07;;;;;;;6.50;3.80;;;;;;;10.79;64.99;99653.81;674420;29;1192;-95
2023/10/25 01:25:27;;;;;;;5.88;3.72;;;;;;;10.81;64.79;99658.19;672514;29;1263;-96
2023/10/25 01:25:48;;;;;;;5.10;3.90;;;;;;;10.76;64.77;99659.00;672474;29;1412;-95
2023/10/25 01:26:09;;;;;;;6.70;4.10;;;;;;;10.82;64.59;99669.53;672828;29;1194;-95
2023/10/25 01:26:30;;;;;;;7.50;4.57;;;;;;;10.78;64.75;99665.13;672592;29;1167;-95
2023/10/25 01:26:51;;;;;;;7.20;4.30;;;;;;;10.81;64.87;99665.13;667305;29;1166;-95
2023/10/25 01:27:11;;;;;;;7.80;4.22;;;;;;;10.73;64.67;99658.97;670163;29;1202;-94
2023/10/25 01:27:32;;;;;;;6.70;3.55;;;;;;;10.72;64.84;99652.91;669955;29;1153;-95
2023/10/25 01:27:53;;;;;;;7.28;3.60;;;;;;;10.80;64.64;99672.09;672284;29;1159;-95
2023/10/25 01:28:14;;;;;;;5.63;3.40;;;;;;;10.73;64.70;99658.97;672552;29;1265;-94
2023/10/25 01:28:34;;;;;;;5.20;3.30;;;;;;;10.75;64.85;99663.34;674779;29;1207;-95
2023/10/25 01:28:55;;;;;;;4.60;3.20;;;;;;;10.74;64.87;99659.00;670067;29;1203;-95
2023/10/25 01:29:16;;;;;;;3.65;2.97;;;;;;;10.77;64.85;99665.97;675238;29;1212;-95
2023/10/25 01:29:37;;;;;;;5.35;3.38;;;;;;;10.79;64.90;99674.69;677741;29;1225;-96
2023/10/25 01:29:57;;;;;;;6.53;3.78;;;;;;;10.67;64.83;99650.25;672584;29;1186;-95
2023/10/25 01:30:18;;;;;;;6.97;4.03;;;;;;;10.73;65.05;99658.97;674914;29;1145;-95
2023/10/25 01:30:40;;;;;;;7.22;4.10;;;;;;;10.69;64.92;99653.72;670029;29;1183;-95
2023/10/25 01:31:01;;;;;;;6.25;3.88;;;;;;;10.74;64.78;99655.53;672415;29;1294;-95
2023/10/25 01:31:22;;;;;;;5.72;3.60;;;;;;;10.73;65.03;99665.06;675206;29;1218;-95
2023/10/25 01:31:43;;;;;;;5.37;3.47;;;;;;;10.67;65.02;99652.84;675290;29;1242;-95
2023/10/25 01:32:03;;;;;;;6.30;3.50;;;;;;;10.72;64.88;99657.22;677682;29;1254;-95
2023/10/25 01:32:24;;;;;;;6.13;3.42;;;;;;;10.74;65.05;99665.97;672353;29;1219;-95
2023/10/25 01:32:45;;;;;;;7.50;3.40;;;;;;;10.72;64.96;99662.44;677945;29;1264;-95
2023/10/25 01:33:06;;;;;;;6.57;3.40;;;;;;;10.65;64.77;99651.97;680469;29;1139;-96
2023/10/25 01:33:27;;;;;;;6.30;3.50;;;;;;;10.73;64.70;99662.47;675006;29;1907;-96
2023/10/25 01:33:51;;;;;;;4.80;3.57;;;;;;;10.72;65.14;99667.66;677799;29;1459;-96
2023/10/25 01:34:11;;;;;;;4.20;3.20;;;;;;;10.72;65.17;99660.72;672528;29;1330;-96
2023/10/25 01:34:32;;;;;;;4.13;3.20;;;;;;;10.65;65.01;99646.75;672403;29;1130;-95
2023/10/25 01:34:53;;;;;;;3.60;3.00;;;;;;;10.77;65.04;99665.97;672424;29;1443;-96
2023/10/25 01:35:13;;;;;;;4.40;3.50;;;;;;;10.69;65.09;99653.72;672834;29;1221;-96
2023/10/25 01:35:35;;;;;;;4.03;3.50;;;;;;;10.69;65.19;99648.50;674713;29;1153;-96
2023/10/25 01:35:55;;;;;;;5.28;3.90;;;;;;;10.76;65.22;99672.06;672472;29;1389;-95
2023/10/25 01:36:16;;;;;;;5.27;3.80;;;;;;;10.82;65.18;99659.94;672590;29;1135;-96
2023/10/25 01:36:37;;;;;;;5.50;3.90;;;;;;;10.80;65.37;99658.16;677918;29;1246;-95
2023/10/25 01:36:58;;;;;;;5.00;3.72;;;;;;;10.85;65.52;99664.31;677715;29;1381;-95
2023/10/25 01:37:19;;;;;;;5.00;3.50;;;;;;;10.79;65.18;99649.47;680184;29;1251;-96
2023/10/25 01:37:40;;;;;;;5.85;3.45;;;;;;;10.85;65.12;99653.88;674980;29;1159;-94
2023/10/25 01:38:02;;;;;;;5.60;3.47;;;;;;;10.80;65.02;99656.44;675162;29;1375;-95
2023/10/25 01:38:23;;;;;;;6.78;3.60;;;;;;;10.85;65.10;99651.25;675120;29;1259;-95
2023/10/25 01:38:43;;;;;;;6.83;3.90;;;;;;;10.86;65.03;99657.38;675227;29;1414;-96
2023/10/25 01:39:05;;;;;;;7.63;3.83;;;;;;;10.83;65.00;99655.59;679458;29;1171;-96
2023/10/25 01:39:25;;;;;;;5.80;3.80;;;;;;;10.87;65.26;99666.94;675362;29;1278;-95
2023/10/25 01:39:46;;;;;;;5.22;3.50;;;;;;;10.89;64.96;99666.09;672775;29;1511;-95
2023/10/25 01:40:07;;;;;;;4.82;3.40;;;;;;;10.91;64.89;99673.94;672691;29;1269;-96
2023/10/25 01:40:28;;;;;;;4.80;3.30;;;;;;;10.79;64.78;99648.59;672673;29;1408;-94
2023/10/25 01:40:49;;;;;;;6.93;3.60;;;;;;;10.86;65.05;99659.97;677555;29;1366;-94
2023/10/25 01:41:15;;;;;;;8.63;3.70;;;;;;;10.85;64.73;99656.47;675188;29;1483;-96
2023/10/25 01:41:36;;;;;;;9.75;4.00;;;;;;;10.85;65.02;99656.47;677746;29;1419;-95
2023/10/25 01:41:57;;;;;;;6.17;3.90;;;;;;;10.86;65.16;99660.84;677803;29;1309;-95
2023/10/25 01:42:18;;;;;;;6.90;4.05;;;;;;;10.90;64.79;99665.25;672708;29;1274;-94
2023/10/25 01:42:38;;;;;;;6.47;4.00;;;;;;;10.85;64.86;99659.09;675356;29;1194;-96
2023/10/25 01:43:00;;;;;;;5.70;3.88;;;;;;;10.85;64.92;99659.09;677769;29;1418;-96
2023/10/25 01:43:21;;;;;;;6.18;4.05;;;;;;;10.89;65.00;99660.88;670049;29;1235;-95
2023/10/25 01:43:43;;;;;;;5.82;4.13;;;;;;;10.86;65.14;99655.63;667547;29;1280;-95
2023/10/25 01:44:04;;;;;;;9.30;4.40;;;;;;;10.91;65.12;99664.38;672324;29;1247;-96
2023/10/25 01:44:24;;;;;;;8.00;4.05;;;;;;;10.91;65.11;99664.38;672745;29;1307;-95
2023/10/25 01:44:45;;;;;;;8.70;4.05;;;;;;;10.90;65.06;99662.63;670121;29;1361;-95
2023/10/25 01:45:06;;;;;;;5.70;4.10;;;;;;;10.85;64.93;99647.75;676797;29;1279;-96
2023/10/25 01:45:27;;;;;;;6.40;4.20;;;;;;;10.88;64.91;99664.31;679829;29;1232;-95
2023/10/25 01:45:49;;;;;;;6.00;4.18;;;;;;;10.94;65.05;99672.22;672840;29;1163;-96
2023/10/25 01:46:10;;;;;;;8.65;4.10;;;;;;;10.82;64.89;99648.63;667488;29;1217;-96